createdAt,value
2019-04-25T00:00:13.075Z,100184.20
2019-04-25T00:02:45.511Z,100197.36
2019-04-25T00:05:13.905Z,100193.61
2019-04-25T00:07:47.127Z,100210.58
2019-04-25T00:10:15.741Z,100222.38
2019-04-25T00:12:53.949Z,100219.98
2019-04-25T00:15:23.040Z,100236.27
2019-04-25T00:17:55.465Z,100240.12
2019-04-25T00:20:23.126Z,100261.32
2019-04-25T00:23:03.549Z,100265.35
2019-04-25T00:25:44.401Z,100284.41
2019-04-25T00:28:28.560Z,100284.21
2019-04-25T00:30:57.041Z,100308.03
2019-04-25T00:33:25.416Z,100319.51
2019-04-25T00:35:54.374Z,100325.34
2019-04-25T00:38:29.811Z,100325.30
2019-04-25T00:40:56.430Z,100317.80
2019-04-25T00:43:31.456Z,100303.42
2019-04-25T00:45:58.725Z,100300.03
2019-04-25T00:48:27.130Z,100304.71
2019-04-25T00:50:55.514Z,100304.71
2019-04-25T00:53:26.388Z,100304.71
2019-04-25T00:55:58.842Z,100305.97
2019-04-25T00:58:34.916Z,100303.27
2019-04-25T01:01:04.967Z,100290.97
2019-04-25T01:03:44.273Z,100291.11
2019-04-25T01:06:16.007Z,100295.83
2019-04-25T01:08:51.817Z,100305.27
2019-04-25T01:11:23.679Z,100310.27
2019-04-25T01:13:50.440Z,100296.23
2019-04-25T01:16:20.016Z,100280.86
2019-04-25T01:18:49.471Z,100279.55
2019-04-25T01:21:18.691Z,100265.30
2019-04-25T01:23:47.347Z,100260.00
2019-04-25T01:26:18.249Z,100253.00
2019-04-25T01:28:51.887Z,100259.42
2019-04-25T01:31:24.945Z,100265.61
2019-04-25T01:33:54.602Z,100283.88
2019-04-25T01:36:41.863Z,100284.83
2019-04-25T01:39:14.364Z,100284.02
2019-04-25T01:42:01.106Z,100264.71
2019-04-25T01:44:34.688Z,100254.70
2019-04-25T01:47:04.488Z,100251.44
2019-04-25T01:49:33.953Z,100261.70
2019-04-25T01:52:03.560Z,100255.26
2019-04-25T01:54:33.829Z,100265.44
2019-04-25T01:57:05.046Z,100291.08
2019-04-25T01:59:33.874Z,100290.38
2019-04-25T02:02:03.803Z,100295.17
2019-04-25T02:04:34.151Z,100295.48
2019-04-25T02:07:03.613Z,100298.34
2019-04-25T02:09:36.471Z,100296.91
2019-04-25T02:12:13.470Z,100305.09
2019-04-25T02:14:43.571Z,100319.49
2019-04-25T02:17:16.225Z,100333.82
2019-04-25T02:19:44.615Z,100349.01
2019-04-25T02:22:14.537Z,100368.81
2019-04-25T02:24:46.993Z,100379.52
2019-04-25T02:27:20.350Z,100384.39
2019-04-25T02:29:53.392Z,100391.34
2019-04-25T02:32:21.469Z,100402.68
2019-04-25T02:34:55.265Z,100402.68
2019-04-25T02:37:25.482Z,100406.98
2019-04-25T02:39:56.651Z,100406.80
2019-04-25T02:42:25.033Z,100419.88
2019-04-25T02:45:00.151Z,100438.74
2019-04-25T02:47:50.883Z,100442.56
2019-04-25T02:50:48.142Z,100442.56
2019-04-25T02:53:18.172Z,100442.76
2019-04-25T02:55:49.100Z,100456.27
2019-04-25T02:58:24.264Z,100459.59
2019-04-25T03:03:44.748Z,100440.88
2019-04-25T03:06:14.927Z,100441.38
2019-04-25T03:08:44.925Z,100443.48
2019-04-25T03:11:18.481Z,100444.65
2019-04-25T03:13:49.559Z,100453.68
2019-04-25T03:16:21.577Z,100451.19
2019-04-25T03:18:57.938Z,100458.47
2019-04-25T03:21:35.247Z,100459.61
2019-04-25T03:24:06.161Z,100457.43
2019-04-25T03:26:40.611Z,100461.88
2019-04-25T03:29:10.403Z,100459.34
2019-04-25T03:31:44.716Z,100452.26
2019-04-25T03:34:20.283Z,100459.59
2019-04-25T03:36:45.060Z,100453.41
2019-04-25T03:39:16.303Z,100454.45
2019-04-25T03:41:43.858Z,100449.23
2019-04-25T03:44:13.997Z,100440.45
2019-04-25T03:46:43.808Z,100439.66
2019-04-25T03:49:13.942Z,100449.59
2019-04-25T03:51:45.060Z,100461.09
2019-04-25T03:54:14.278Z,100468.64
2019-04-25T03:56:53.545Z,100447.01
2019-04-25T03:59:16.099Z,100463.63
2019-04-25T04:01:44.625Z,100472.62
2019-04-25T04:04:16.218Z,100475.31
2019-04-25T04:06:44.254Z,100484.33
2019-04-25T04:09:17.559Z,100497.48
2019-04-25T04:11:53.464Z,100490.78
2019-04-25T04:14:23.827Z,100492.69
2019-04-25T04:17:16.124Z,100499.09
2019-04-25T04:19:46.180Z,100503.40
2019-04-25T04:22:18.754Z,100504.81
2019-04-25T04:24:48.049Z,100508.66
2019-04-25T04:27:21.730Z,100517.55
2019-04-25T04:29:50.122Z,100517.45
2019-04-25T04:32:18.541Z,100523.61
2019-04-25T04:34:47.001Z,100521.09
2019-04-25T04:37:23.622Z,100529.78
2019-04-25T04:39:54.329Z,100536.45
2019-04-25T04:42:25.184Z,100550.13
2019-04-25T04:44:53.646Z,100557.36
2019-04-25T04:47:25.546Z,100556.86
2019-04-25T04:49:54.151Z,100568.91
2019-04-25T04:52:25.220Z,100566.91
2019-04-25T04:55:03.692Z,100568.23
2019-04-25T04:57:32.569Z,100563.00
2019-04-25T05:00:03.675Z,100570.30
2019-04-25T05:02:39.350Z,100579.44
2019-04-25T05:05:09.503Z,100578.80
2019-04-25T05:07:45.529Z,100581.12
2019-04-25T05:10:16.511Z,100593.03
2019-04-25T05:12:44.070Z,100583.91
2019-04-25T05:15:16.231Z,100587.05
2019-04-25T05:17:44.144Z,100587.63
2019-04-25T05:20:20.575Z,100590.08
2019-04-25T05:22:54.907Z,100599.61
2019-04-25T05:25:24.746Z,100603.59
2019-04-25T05:28:00.747Z,100602.20
2019-04-25T05:30:26.519Z,100613.72
2019-04-25T05:32:54.490Z,100616.89
2019-04-25T05:35:24.335Z,100617.58
2019-04-25T05:37:54.056Z,100627.25
2019-04-25T05:40:24.134Z,100630.67
2019-04-25T05:42:59.311Z,100636.54
2019-04-25T05:45:31.697Z,100642.61
2019-04-25T05:48:06.015Z,100655.27
2019-04-25T05:50:35.566Z,100665.36
2019-04-25T05:53:04.388Z,100669.82
2019-04-25T05:55:35.398Z,100677.92
2019-04-25T05:58:04.102Z,100667.42
2019-04-25T06:00:34.027Z,100660.59
2019-04-25T06:03:03.560Z,100675.58
2019-04-25T06:05:34.760Z,100679.03
2019-04-25T06:08:05.615Z,100677.16
2019-04-25T06:10:41.553Z,100679.88
2019-04-25T06:13:28.513Z,100676.84
2019-04-25T06:16:03.561Z,100682.88
2019-04-25T06:18:33.861Z,100687.34
2019-04-25T06:21:05.869Z,100698.72
2019-04-25T06:23:44.336Z,100702.78
2019-04-25T06:26:26.751Z,100699.33
2019-04-25T06:28:53.817Z,100701.66
2019-04-25T06:31:17.391Z,100696.53
2019-04-25T06:33:45.908Z,100700.27
2019-04-25T06:36:14.368Z,100704.63
2019-04-25T06:38:44.354Z,100703.69
2019-04-25T06:41:15.361Z,100700.88
2019-04-25T06:43:45.418Z,100712.09
2019-04-25T06:46:26.847Z,100714.05
2019-04-25T06:49:05.063Z,100714.29
2019-04-25T06:51:50.442Z,100710.72
2019-04-25T06:54:25.393Z,100716.30
2019-04-25T06:56:53.625Z,100719.30
2019-04-25T06:59:25.907Z,100721.95
2019-04-25T07:01:54.086Z,100716.17
2019-04-25T07:04:26.257Z,100712.91
2019-04-25T07:06:53.660Z,100713.62
2019-04-25T07:09:24.417Z,100715.97
2019-04-25T07:11:53.753Z,100716.81
2019-04-25T07:14:24.558Z,100717.88
2019-04-25T07:16:53.275Z,100711.39
2019-04-25T07:19:25.019Z,100714.73
2019-04-25T07:21:54.511Z,100720.97
2019-04-25T07:24:24.818Z,100722.08
2019-04-25T07:27:11.531Z,100726.47
2019-04-25T07:29:59.863Z,100730.25
2019-04-25T07:32:35.692Z,100729.11
2019-04-25T07:35:05.885Z,100723.83
2019-04-25T07:37:37.108Z,100718.59
2019-04-25T07:40:08.591Z,100722.03
2019-04-25T07:42:39.189Z,100713.41
2019-04-25T07:45:11.707Z,100703.77
2019-04-25T07:47:44.131Z,100703.44
2019-04-25T07:50:16.833Z,100707.19
2019-04-25T07:52:45.242Z,100713.89
2019-04-25T07:55:13.877Z,100715.98
2019-04-25T07:57:44.707Z,100719.37
2019-04-25T08:00:15.354Z,100718.39
2019-04-25T08:02:43.918Z,100715.98
2019-04-25T08:05:14.991Z,100717.97
2019-04-25T08:07:50.847Z,100720.52
2019-04-25T08:10:23.952Z,100713.83
2019-04-25T08:12:53.668Z,100721.29
2019-04-25T08:15:33.519Z,100724.06
2019-04-25T08:18:08.424Z,100723.68
2019-04-25T08:20:37.163Z,100725.63
2019-04-25T08:23:07.164Z,100725.59
2019-04-25T08:25:37.848Z,100724.11
2019-04-25T08:28:10.580Z,100724.75
2019-04-25T08:30:41.788Z,100728.31
2019-04-25T08:33:14.242Z,100728.45
2019-04-25T08:36:03.427Z,100726.61
2019-04-25T08:38:16.924Z,100737.91
2019-04-25T08:40:45.315Z,100734.12
2019-04-25T08:43:14.690Z,100723.36
2019-04-25T08:45:44.285Z,100736.52
2019-04-25T08:48:13.593Z,100737.41
2019-04-25T08:50:44.520Z,100738.20
2019-04-25T08:53:13.699Z,100745.06
2019-04-25T08:55:45.737Z,100740.58
2019-04-25T08:58:32.694Z,100732.73
2019-04-25T09:01:20.994Z,100731.59
2019-04-25T09:04:09.767Z,100730.19
2019-04-25T09:06:44.257Z,100723.73
2019-04-25T09:09:15.535Z,100722.39
2019-04-25T09:11:46.909Z,100724.25
2019-04-25T09:14:20.604Z,100711.89
2019-04-25T09:16:48.987Z,100710.45
2019-04-25T09:19:20.246Z,100712.08
2019-04-25T09:21:51.105Z,100722.48
2019-04-25T09:24:24.415Z,100717.42
2019-04-25T09:26:54.204Z,100721.16
2019-04-25T09:29:24.649Z,100731.64
2019-04-25T09:31:53.772Z,100734.05
2019-04-25T09:34:23.704Z,100737.30
2019-04-25T09:36:53.631Z,100734.05
2019-04-25T09:39:26.209Z,100730.50
2019-04-25T09:41:54.588Z,100725.19
2019-04-25T09:44:26.024Z,100728.34
2019-04-25T09:46:54.393Z,100734.05
2019-04-25T09:49:24.439Z,100727.05
2019-04-25T09:51:54.476Z,100726.19
2019-04-25T09:54:31.175Z,100714.30
2019-04-25T09:57:06.735Z,100718.68
2019-04-25T09:59:36.229Z,100718.68
2019-04-25T10:02:06.326Z,100714.14
2019-04-25T10:04:34.732Z,100729.19
2019-04-25T10:07:05.026Z,100729.27
2019-04-25T10:09:37.188Z,100724.14
2019-04-25T10:12:05.953Z,100726.15
2019-04-25T10:14:48.848Z,100716.97
2019-04-25T10:17:16.003Z,100718.33
2019-04-25T10:19:45.614Z,100726.01
2019-04-25T10:22:21.290Z,100736.00
2019-04-25T10:24:59.993Z,100719.73
2019-04-25T10:27:19.709Z,100713.69
2019-04-25T10:29:53.668Z,100710.35
2019-04-25T10:32:23.766Z,100717.70
2019-04-25T10:34:54.344Z,100714.99
2019-04-25T10:37:22.728Z,100721.96
2019-04-25T10:39:51.476Z,100712.08
2019-04-25T10:42:20.925Z,100717.00
2019-04-25T10:44:50.473Z,100716.55
2019-04-25T10:47:18.829Z,100715.05
2019-04-25T10:49:48.249Z,100727.31
2019-04-25T10:52:20.914Z,100716.39
2019-04-25T10:54:54.264Z,100721.11
2019-04-25T10:57:24.786Z,100721.37
2019-04-25T11:00:05.629Z,100705.25
2019-04-25T11:02:23.650Z,100719.02
2019-04-25T11:04:54.526Z,100727.95
2019-04-25T11:07:28.703Z,100722.21
2019-04-25T11:09:58.206Z,100714.52
2019-04-25T11:12:27.677Z,100710.83
2019-04-25T11:14:58.620Z,100710.97
2019-04-25T11:17:27.624Z,100712.97
2019-04-25T11:20:05.527Z,100712.85
2019-04-25T11:22:34.279Z,100714.96
2019-04-25T11:25:05.164Z,100724.59
2019-04-25T11:27:33.996Z,100710.91
2019-04-25T11:30:10.922Z,100711.31
2019-04-25T11:32:36.110Z,100710.28
2019-04-25T11:35:07.770Z,100711.47
2019-04-25T11:37:37.196Z,100714.27
2019-04-25T11:40:14.417Z,100702.91
2019-04-25T11:42:45.921Z,100702.22
2019-04-25T11:45:14.641Z,100702.90
2019-04-25T11:47:49.575Z,100713.38
2019-04-25T11:50:21.840Z,100717.33
2019-04-25T11:52:50.503Z,100695.42
2019-04-25T11:55:30.347Z,100704.67
2019-04-25T11:58:17.256Z,100703.06
2019-04-25T12:00:47.115Z,100701.89
2019-04-25T12:03:15.712Z,100707.20
2019-04-25T12:05:45.844Z,100694.14
2019-04-25T12:08:14.488Z,100697.41
2019-04-25T12:10:47.874Z,100701.47
2019-04-25T12:13:18.898Z,100694.11
2019-04-25T12:15:54.832Z,100702.06
2019-04-25T12:18:23.497Z,100699.58
2019-04-25T12:20:51.874Z,100696.17
2019-04-25T12:23:23.365Z,100693.45
2019-04-25T12:25:54.046Z,100694.98
2019-04-25T12:28:23.519Z,100693.65
2019-04-25T12:30:54.698Z,100698.86
2019-04-25T12:33:25.866Z,100697.40
2019-04-25T12:35:54.175Z,100693.38
2019-04-25T12:38:26.239Z,100691.10
2019-04-25T12:40:55.327Z,100689.03
2019-04-25T12:43:31.142Z,100687.30
2019-04-25T12:46:08.055Z,100689.14
2019-04-25T12:48:36.441Z,100696.39
2019-04-25T12:51:07.429Z,100689.72
2019-04-25T12:53:36.268Z,100688.47
2019-04-25T12:56:04.722Z,100689.89
2019-04-25T12:58:33.510Z,100692.50
2019-04-25T13:01:09.650Z,100691.86
2019-04-25T13:03:38.013Z,100690.43
2019-04-25T13:06:13.652Z,100688.30
2019-04-25T13:08:44.102Z,100696.80
2019-04-25T13:11:13.955Z,100691.08
2019-04-25T13:13:43.621Z,100697.89
2019-04-25T13:16:14.207Z,100693.72
2019-04-25T13:18:42.603Z,100695.66
2019-04-25T13:21:14.520Z,100691.89
2019-04-25T13:23:45.604Z,100699.84
2019-04-25T13:26:16.715Z,100697.60
2019-04-25T13:29:05.161Z,100702.36
2019-04-25T13:31:41.553Z,100703.62
2019-04-25T13:34:15.317Z,100704.84
2019-04-25T13:36:44.294Z,100706.45
2019-04-25T13:39:19.438Z,100715.13
2019-04-25T13:41:54.352Z,100712.42
2019-04-25T13:44:24.423Z,100705.77
2019-04-25T13:46:56.399Z,100704.70
2019-04-25T13:49:25.062Z,100700.03
2019-04-25T13:51:53.486Z,100704.69
2019-04-25T13:54:25.047Z,100709.84
2019-04-25T13:56:54.719Z,100713.59
2019-04-25T13:59:25.736Z,100714.63
2019-04-25T14:01:57.724Z,100709.66
2019-04-25T14:04:28.323Z,100707.09
2019-04-25T14:06:59.148Z,100707.27
2019-04-25T14:09:30.484Z,100695.98
2019-04-25T14:12:04.020Z,100696.08
2019-04-25T14:14:41.436Z,100692.33
2019-04-25T14:17:29.672Z,100695.09
2019-04-25T14:20:14.114Z,100694.20
2019-04-25T14:22:45.359Z,100687.14
2019-04-25T14:25:14.932Z,100680.39
2019-04-25T14:27:44.549Z,100682.98
2019-04-25T14:30:14.757Z,100676.19
2019-04-25T14:32:43.562Z,100667.28
2019-04-25T14:35:12.290Z,100674.80
2019-04-25T14:37:40.685Z,100665.77
2019-04-25T14:40:10.085Z,100668.34
2019-04-25T14:42:40.971Z,100666.63
2019-04-25T14:45:13.604Z,100659.56
2019-04-25T14:47:41.992Z,100648.61
2019-04-25T14:50:12.963Z,100654.23
2019-04-25T14:52:41.357Z,100652.12
2019-04-25T14:55:33.751Z,100658.17
2019-04-25T14:58:04.185Z,100655.45
2019-04-25T15:00:42.960Z,100652.89
2019-04-25T15:03:15.495Z,100656.12
2019-04-25T15:05:44.138Z,100653.69
2019-04-25T15:08:12.519Z,100646.80
2019-04-25T15:10:44.694Z,100639.70
2019-04-25T15:13:13.140Z,100651.22
2019-04-25T15:15:45.603Z,100645.09
2019-04-25T15:18:15.130Z,100644.61
2019-04-25T15:20:46.103Z,100654.55
2019-04-25T15:23:14.495Z,100649.89
2019-04-25T15:25:42.880Z,100653.12
2019-04-25T15:28:14.880Z,100655.50
2019-04-25T15:30:46.036Z,100653.13
2019-04-25T15:33:14.523Z,100653.20
2019-04-25T15:35:59.301Z,100657.91
2019-04-25T15:38:38.189Z,100654.68
2019-04-25T15:41:08.559Z,100642.58
2019-04-25T15:43:54.977Z,100648.91
2019-04-25T15:46:32.772Z,100643.34
2019-04-25T15:49:03.903Z,100637.11
2019-04-25T15:51:32.719Z,100639.08
2019-04-25T15:54:01.177Z,100638.12
2019-04-25T15:56:30.616Z,100634.86
2019-04-25T15:58:58.924Z,100633.90
2019-04-25T16:01:30.273Z,100636.11
2019-04-25T16:04:01.216Z,100633.18
2019-04-25T16:06:31.652Z,100632.15
2019-04-25T16:09:00.202Z,100629.72
2019-04-25T16:11:28.673Z,100627.35
2019-04-25T16:14:02.085Z,100631.71
2019-04-25T16:16:30.542Z,100622.88
2019-04-25T16:19:01.512Z,100624.30
2019-04-25T16:21:33.883Z,100624.59
2019-04-25T16:24:02.267Z,100618.59
2019-04-25T16:26:31.459Z,100625.33
2019-04-25T16:28:59.979Z,100622.02
2019-04-25T16:31:29.235Z,100622.33
2019-04-25T16:33:57.717Z,100621.73
2019-04-25T16:36:26.132Z,100616.66
2019-04-25T16:38:54.559Z,100613.89
2019-04-25T16:41:23.722Z,100619.87
2019-04-25T16:43:53.745Z,100614.73
2019-04-25T16:46:23.337Z,100614.44
2019-04-25T16:48:51.803Z,100618.14
2019-04-25T16:51:20.262Z,100614.07
2019-04-25T16:53:48.667Z,100618.11
2019-04-25T16:56:18.169Z,100622.16
2019-04-25T16:58:46.643Z,100617.59
2019-04-25T17:01:15.815Z,100619.44
2019-04-25T17:03:44.753Z,100613.13
2019-04-25T17:06:13.399Z,100613.93
2019-04-25T17:08:47.070Z,100606.80
2019-04-25T17:11:15.828Z,100604.58
2019-04-25T17:13:45.885Z,100604.35
2019-04-25T17:16:21.848Z,100605.20
2019-04-25T17:18:57.933Z,100605.04
2019-04-25T17:21:36.905Z,100604.09
2019-04-25T17:24:28.461Z,100602.81
2019-04-25T17:26:56.853Z,100602.75
2019-04-25T17:29:25.376Z,100599.44
2019-04-25T17:31:58.492Z,100602.27
2019-04-25T17:34:35.353Z,100598.91
2019-04-25T17:37:11.687Z,100610.18
2019-04-25T17:39:42.173Z,100615.41
2019-04-25T17:42:10.618Z,100613.90
2019-04-25T17:44:39.026Z,100621.03
2019-04-25T17:47:07.422Z,100615.48
2019-04-25T17:49:36.678Z,100611.55
2019-04-25T17:52:05.334Z,100614.78
2019-04-25T17:54:34.215Z,100613.02
2019-04-25T17:57:02.683Z,100611.55
2019-04-25T17:59:32.286Z,100618.64
2019-04-25T18:02:01.677Z,100623.16
2019-04-25T18:04:30.131Z,100619.84
2019-04-25T18:06:58.516Z,100618.24
2019-04-25T18:09:26.895Z,100624.63
2019-04-25T18:11:55.320Z,100629.45
2019-04-25T18:14:23.810Z,100619.89
2019-04-25T18:16:52.304Z,100611.86
2019-04-25T18:19:25.915Z,100614.43
2019-04-25T18:21:55.940Z,100620.38
2019-04-25T18:24:41.236Z,100618.30
2019-04-25T18:27:20.401Z,100621.61
2019-04-25T18:29:48.785Z,100625.73
2019-04-25T18:32:17.160Z,100625.41
2019-04-25T18:34:59.445Z,100633.82
2019-04-25T18:37:29.465Z,100629.36
2019-04-25T18:40:08.325Z,100633.41
2019-04-25T18:42:38.346Z,100635.06
2019-04-25T18:45:08.295Z,100636.56
2019-04-25T18:47:36.968Z,100646.25
2019-04-25T18:50:08.368Z,100635.66
2019-04-25T18:52:45.056Z,100637.58
2019-04-25T18:55:17.087Z,100631.45
2019-04-25T18:57:48.059Z,100635.05
2019-04-25T19:00:30.655Z,100636.94
2019-04-25T19:03:22.478Z,100634.64
2019-04-25T19:05:47.317Z,100634.13
2019-04-25T19:08:15.717Z,100638.20
2019-04-25T19:10:45.038Z,100646.23
2019-04-25T19:13:13.651Z,100649.91
2019-04-25T19:15:43.006Z,100649.16
2019-04-25T19:18:11.514Z,100642.41
2019-04-25T19:20:40.033Z,100641.66
2019-04-25T19:23:08.469Z,100643.28
2019-04-25T19:25:36.881Z,100643.87
2019-04-25T19:28:05.264Z,100644.16
2019-04-25T19:30:33.735Z,100641.48
2019-04-25T19:33:02.113Z,100648.52
2019-04-25T19:35:30.517Z,100645.59
2019-04-25T19:37:58.910Z,100643.34
2019-04-25T19:40:30.344Z,100644.38
2019-04-25T19:43:06.488Z,100636.66
2019-04-25T19:45:34.881Z,100635.81
2019-04-25T19:48:03.266Z,100634.57
2019-04-25T19:50:31.676Z,100634.52
2019-04-25T19:53:00.080Z,100628.82
2019-04-25T19:55:28.484Z,100627.98
2019-04-25T19:57:56.909Z,100630.52
2019-04-25T20:00:25.304Z,100638.36
2019-04-25T20:03:07.389Z,100624.36
2019-04-25T20:05:44.177Z,100627.73
2019-04-25T20:08:32.321Z,100629.63
2019-04-25T20:11:11.097Z,100625.50
2019-04-25T20:13:39.497Z,100624.27
2019-04-25T20:16:07.879Z,100620.63
2019-04-25T20:18:36.289Z,100619.13
2019-04-25T20:21:04.689Z,100623.27
2019-04-25T20:23:33.071Z,100621.05
2019-04-25T20:26:01.478Z,100617.55
2019-04-25T20:28:29.893Z,100619.42
2019-04-25T20:30:58.271Z,100621.62
2019-04-25T20:33:26.785Z,100617.16
2019-04-25T20:35:55.326Z,100616.42
2019-04-25T20:38:27.112Z,100618.30
2019-04-25T20:40:56.509Z,100613.89
2019-04-25T20:43:24.878Z,100608.20
2019-04-25T20:45:54.401Z,100605.11
2019-04-25T20:48:34.908Z,100600.89
2019-04-25T20:51:03.376Z,100608.20
2019-04-25T20:53:31.768Z,100603.98
2019-04-25T20:56:00.155Z,100598.83
2019-04-25T20:58:28.613Z,100602.14
2019-04-25T21:00:58.607Z,100604.62
2019-04-25T21:03:27.012Z,100604.02
2019-04-25T21:06:00.552Z,100606.17
2019-04-25T21:08:28.971Z,100604.22
2019-04-25T21:10:58.932Z,100599.77
2019-04-25T21:13:29.104Z,100603.58
2019-04-25T21:16:15.346Z,100605.75
2019-04-25T21:18:45.630Z,100596.47
2019-04-25T21:21:14.066Z,100587.05
2019-04-25T21:23:42.791Z,100589.23
2019-04-25T21:26:11.300Z,100590.89
2019-04-25T21:28:40.056Z,100593.79
2019-04-25T21:31:09.015Z,100594.19
2019-04-25T21:33:37.581Z,100594.62
2019-04-25T21:36:07.354Z,100590.90
2019-04-25T21:38:36.068Z,100585.73
2019-04-25T21:41:09.443Z,100585.02
2019-04-25T21:43:45.903Z,100585.40
2019-04-25T21:46:14.687Z,100594.18
2019-04-25T21:48:43.347Z,100587.59
2019-04-25T21:51:30.654Z,100587.03
2019-04-25T21:54:05.004Z,100589.13
2019-04-25T21:56:33.594Z,100587.16
2019-04-25T21:59:02.092Z,100586.97
2019-04-25T22:01:35.025Z,100584.38
2019-04-25T22:04:03.702Z,100581.59
2019-04-25T22:06:33.619Z,100578.44
2019-04-25T22:09:02.981Z,100583.22
2019-04-25T22:11:31.808Z,100578.74
2019-04-25T22:14:01.374Z,100576.19
2019-04-25T22:16:30.224Z,100573.06
2019-04-25T22:18:59.873Z,100574.72
2019-04-25T22:21:37.806Z,100570.31
2019-04-25T22:24:08.674Z,100560.20
2019-04-25T22:26:28.809Z,100567.01
2019-04-25T22:28:57.825Z,100562.98
2019-04-25T22:31:41.110Z,100563.22
2019-04-25T22:34:11.465Z,100559.51
2019-04-25T22:36:42.540Z,100560.92
2019-04-25T22:39:11.774Z,100558.23
2019-04-25T22:41:47.205Z,100558.97
2019-04-25T22:44:16.072Z,100560.85
2019-04-25T22:46:44.932Z,100560.53
2019-04-25T22:49:13.299Z,100565.08
2019-04-25T22:51:41.705Z,100561.16
2019-04-25T22:54:10.355Z,100563.02
2019-04-25T22:56:38.788Z,100557.34
2019-04-25T22:59:07.660Z,100558.48
2019-04-25T23:01:46.570Z,100559.81
2019-04-25T23:04:34.750Z,100558.97
2019-04-25T23:07:04.084Z,100560.08
2019-04-25T23:09:34.133Z,100560.82
2019-04-25T23:12:03.821Z,100556.67
2019-04-25T23:14:33.014Z,100556.37
2019-04-25T23:17:01.604Z,100547.27
2019-04-25T23:19:31.278Z,100547.61
2019-04-25T23:22:03.087Z,100544.21
2019-04-25T23:24:38.269Z,100541.91
2019-04-25T23:27:08.562Z,100540.57
2019-04-25T23:29:37.752Z,100539.64
2019-04-25T23:32:06.806Z,100538.41
2019-04-25T23:34:35.264Z,100537.08
2019-04-25T23:37:04.725Z,100533.58
2019-04-25T23:39:34.391Z,100538.53
2019-04-25T23:42:03.017Z,100534.59
2019-04-25T23:44:31.417Z,100537.17
2019-04-25T23:46:59.918Z,100532.53
2019-04-25T23:49:28.322Z,100529.34
2019-04-25T23:51:56.995Z,100530.16
2019-04-25T23:54:25.549Z,100532.01
2019-04-25T23:56:54.243Z,100530.25
2019-04-25T23:59:22.634Z,100526.60
